Time;durP1;ratioP1;P1;durP2;ratioP2;P2;SDS_P1;SDS_P2;PMS_P1;PMS_P2;Temp;Humidity;BMP_temperature;BMP_pressure;BME280_temperature;BME280_humidity;BME280_pressure;Samples;Min_cycle;Max_cycle;Signal;HPM_P1;HPM_P2
2023/04/16 00:00:56;;;;;;;;;;;8.40;99.90;;;;;;5079217;28;19928;-78
2023/04/16 00:03:22;;;;;;;;;;;8.50;99.90;;;;;;5087005;28;20007;-78
2023/04/16 00:05:48;;;;;;;;;;;8.40;99.90;;;;;;5069299;28;19924;-78
2023/04/16 00:08:13;;;;;;;;;;;8.40;99.90;;;;;;5054257;28;19939;-78
2023/04/16 00:10:39;;;;;;;;;;;8.40;99.90;;;;;;5089165;28;19964;-78
2023/04/16 00:13:04;;;;;;;;;;;8.40;99.90;;;;;;5084874;28;20191;-78
2023/04/16 00:15:30;;;;;;;;;;;8.40;99.90;;;;;;5090265;28;19932;-78
2023/04/16 00:17:55;;;;;;;;;;;8.40;99.90;;;;;;5071862;28;19972;-78
2023/04/16 00:20:21;;;;;;;;;;;8.40;99.90;;;;;;5063928;28;19928;-78
2023/04/16 00:22:47;;;;;;;;;;;8.40;99.90;;;;;;5062334;28;19935;-78
2023/04/16 00:25:12;;;;;;;;;;;8.40;99.90;;;;;;5076491;28;20011;-79
2023/04/16 00:27:38;;;;;;;;;;;8.40;99.90;;;;;;5076680;28;19963;-79
2023/04/16 00:30:04;;;;;;;;;;;8.40;99.90;;;;;;5076695;28;19982;-78
2023/04/16 00:32:30;;;;;;;;;;;8.40;99.90;;;;;;5071075;28;19924;-78
2023/04/16 00:34:55;;;;;;;;;;;8.40;99.90;;;;;;5079350;28;20459;-78
2023/04/16 00:37:21;;;;;;;;;;;8.40;99.90;;;;;;5070265;28;19999;-77
2023/04/16 00:39:47;;;;;;;;;;;8.40;99.90;;;;;;5073131;28;19928;-78
2023/04/16 00:42:12;;;;;;;;;;;8.40;99.90;;;;;;5090563;28;19944;-77
2023/04/16 00:44:38;;;;;;;;;;;8.40;99.90;;;;;;5087721;28;20532;-78
2023/04/16 00:47:06;;;;;;;;;;;8.40;99.90;;;;;;5070509;28;19935;-77
2023/04/16 00:49:31;;;;;;;;;;;8.40;99.90;;;;;;5085922;28;19924;-78
2023/04/16 00:51:57;;;;;;;;;;;8.40;99.90;;;;;;5077823;28;19931;-78
2023/04/16 00:54:24;;;;;;;;;;;8.40;99.90;;;;;;5087723;28;20469;-78
2023/04/16 00:56:50;;;;;;;;;;;8.50;99.90;;;;;;5092397;28;19950;-78
2023/04/16 00:59:15;;;;;;;;;;;8.40;99.90;;;;;;5059206;28;19947;-77
2023/04/16 01:01:41;;;;;;;;;;;8.40;99.90;;;;;;5076383;28;19976;-78
2023/04/16 01:04:07;;;;;;;;;;;8.40;99.90;;;;;;5043839;28;19939;-78
2023/04/16 01:06:32;;;;;;;;;;;8.40;99.90;;;;;;5086865;28;21213;-78
2023/04/16 01:08:58;;;;;;;;;;;8.40;99.90;;;;;;5087036;28;19932;-77
2023/04/16 01:11:23;;;;;;;;;;;8.40;99.90;;;;;;5040122;28;20348;-78
2023/04/16 01:13:49;;;;;;;;;;;8.40;99.90;;;;;;5058427;28;19930;-78
2023/04/16 01:16:14;;;;;;;;;;;8.40;99.90;;;;;;5070056;28;19931;-78
2023/04/16 01:18:40;;;;;;;;;;;8.40;99.90;;;;;;5086982;28;19932;-78
2023/04/16 01:21:06;;;;;;;;;;;8.50;99.90;;;;;;5086017;28;19940;-78
2023/04/16 01:23:31;;;;;;;;;;;8.40;99.90;;;;;;5072625;28;19928;-78
2023/04/16 01:25:57;;;;;;;;;;;8.40;99.90;;;;;;5069251;28;19956;-78
2023/04/16 01:28:22;;;;;;;;;;;8.50;99.90;;;;;;5087422;28;19936;-78
2023/04/16 01:30:48;;;;;;;;;;;8.50;99.90;;;;;;5074029;28;19924;-78
2023/04/16 01:33:14;;;;;;;;;;;8.40;99.90;;;;;;5072412;28;19971;-78
2023/04/16 01:35:40;;;;;;;;;;;8.50;99.90;;;;;;5038661;28;20702;-78
2023/04/16 01:38:06;;;;;;;;;;;8.40;99.90;;;;;;5051401;28;20373;-78
2023/04/16 01:40:33;;;;;;;;;;;8.50;99.90;;;;;;5067136;28;19924;-78
2023/04/16 01:42:58;;;;;;;;;;;8.50;99.90;;;;;;5095087;28;19936;-78
2023/04/16 01:45:24;;;;;;;;;;;8.50;99.90;;;;;;5074936;28;20165;-79
2023/04/16 01:47:50;;;;;;;;;;;8.50;99.90;;;;;;5073311;28;19936;-78
2023/04/16 01:50:16;;;;;;;;;;;8.50;99.90;;;;;;5060362;28;20004;-78
2023/04/16 01:52:42;;;;;;;;;;;8.50;99.90;;;;;;5050561;28;19925;-78
2023/04/16 01:55:08;;;;;;;;;;;8.50;99.90;;;;;;5091097;28;19939;-78
2023/04/16 01:57:33;;;;;;;;;;;8.50;99.90;;;;;;5091699;28;19932;-78
2023/04/16 01:59:59;;;;;;;;;;;8.50;99.90;;;;;;5051245;28;20009;-78
2023/04/16 02:02:27;;;;;;;;;;;8.50;99.90;;;;;;5072144;28;19928;-78
2023/04/16 02:04:53;;;;;;;;;;;8.50;99.90;;;;;;5069393;28;19935;-77
2023/04/16 02:07:19;;;;;;;;;;;8.50;99.90;;;;;;5064057;28;19963;-78
2023/04/16 02:09:44;;;;;;;;;;;8.50;99.90;;;;;;5073335;28;19932;-78
2023/04/16 02:12:10;;;;;;;;;;;8.50;99.90;;;;;;5089479;28;19932;-78
2023/04/16 02:14:36;;;;;;;;;;;8.50;99.90;;;;;;5060344;28;20016;-78
2023/04/16 02:17:02;;;;;;;;;;;8.50;99.90;;;;;;5094611;28;19936;-78
2023/04/16 02:19:27;;;;;;;;;;;8.50;99.90;;;;;;5078989;28;19925;-78
2023/04/16 02:21:53;;;;;;;;;;;8.50;99.90;;;;;;5060663;28;21473;-78
2023/04/16 02:24:19;;;;;;;;;;;8.50;99.90;;;;;;5108744;28;20436;-78
2023/04/16 02:26:45;;;;;;;;;;;8.40;99.90;;;;;;5096494;28;19947;-77
2023/04/16 02:29:11;;;;;;;;;;;8.50;99.90;;;;;;5062128;28;19925;-78
2023/04/16 02:31:37;;;;;;;;;;;8.50;99.90;;;;;;5095195;28;19943;-78
2023/04/16 02:34:03;;;;;;;;;;;8.40;99.90;;;;;;5092254;28;19928;-78
2023/04/16 02:36:28;;;;;;;;;;;8.40;99.90;;;;;;5089122;28;20010;-78
2023/04/16 02:38:54;;;;;;;;;;;8.40;99.90;;;;;;5059620;28;19932;-78
2023/04/16 02:41:20;;;;;;;;;;;8.40;99.90;;;;;;5060099;28;19924;-78
2023/04/16 02:43:45;;;;;;;;;;;8.40;99.90;;;;;;5079335;28;19924;-77
2023/04/16 02:46:11;;;;;;;;;;;8.40;99.90;;;;;;5073058;28;19932;-78
2023/04/16 02:48:37;;;;;;;;;;;8.40;99.90;;;;;;5072381;28;20657;-78
2023/04/16 02:51:02;;;;;;;;;;;8.40;99.90;;;;;;5071350;28;20020;-77
2023/04/16 02:53:28;;;;;;;;;;;8.40;99.90;;;;;;5067854;28;19924;-77
2023/04/16 02:55:54;;;;;;;;;;;8.40;99.90;;;;;;5095710;28;20452;-78
2023/04/16 02:58:20;;;;;;;;;;;8.40;99.90;;;;;;5095677;28;20398;-77
2023/04/16 03:00:45;;;;;;;;;;;8.40;99.90;;;;;;5095542;28;19987;-78
2023/04/16 03:03:11;;;;;;;;;;;8.40;99.90;;;;;;5078297;28;19956;-78
2023/04/16 03:05:37;;;;;;;;;;;8.30;99.90;;;;;;5085827;28;19929;-78
2023/04/16 03:08:02;;;;;;;;;;;8.30;99.90;;;;;;5072005;28;19999;-78
2023/04/16 03:10:28;;;;;;;;;;;8.30;99.90;;;;;;5072935;28;19924;-77
2023/04/16 03:12:54;;;;;;;;;;;8.30;99.90;;;;;;5063970;28;19950;-78
2023/04/16 03:15:19;;;;;;;;;;;8.30;99.90;;;;;;5074556;28;19932;-78
2023/04/16 03:17:45;;;;;;;;;;;8.30;99.90;;;;;;5088479;28;20055;-78
2023/04/16 03:20:11;;;;;;;;;;;8.20;99.90;;;;;;5071249;28;19924;-78
2023/04/16 03:22:37;;;;;;;;;;;8.20;99.90;;;;;;5073342;28;19986;-78
2023/04/16 03:25:03;;;;;;;;;;;8.20;99.90;;;;;;5087620;28;20416;-78
2023/04/16 03:27:29;;;;;;;;;;;8.20;99.90;;;;;;5078100;28;19933;-78
2023/04/16 03:29:54;;;;;;;;;;;8.20;99.90;;;;;;5090027;28;19928;-78
2023/04/16 03:32:20;;;;;;;;;;;8.10;99.90;;;;;;5064202;28;19924;-78
2023/04/16 03:34:45;;;;;;;;;;;8.20;99.90;;;;;;5074431;28;19928;-78
2023/04/16 03:37:11;;;;;;;;;;;8.20;99.90;;;;;;5071830;28;19925;-78
2023/04/16 03:39:37;;;;;;;;;;;8.10;99.90;;;;;;5070888;28;19932;-78
2023/04/16 03:42:02;;;;;;;;;;;8.10;99.90;;;;;;5059793;28;20268;-78
2023/04/16 03:44:28;;;;;;;;;;;8.10;99.90;;;;;;5079110;28;20307;-78
2023/04/16 03:46:54;;;;;;;;;;;8.10;99.90;;;;;;5069799;28;19928;-78
2023/04/16 03:49:19;;;;;;;;;;;8.20;99.90;;;;;;5086924;28;19928;-78
2023/04/16 03:51:45;;;;;;;;;;;8.10;99.90;;;;;;5070148;28;19957;-78
2023/04/16 03:54:11;;;;;;;;;;;8.10;99.90;;;;;;5054057;28;19933;-78
2023/04/16 03:56:38;;;;;;;;;;;8.10;99.90;;;;;;5062490;28;19935;-77
2023/04/16 03:59:04;;;;;;;;;;;8.10;99.90;;;;;;5056181;28;19924;-77
2023/04/16 04:01:29;;;;;;;;;;;8.10;99.90;;;;;;5087379;28;20379;-78
2023/04/16 04:03:55;;;;;;;;;;;8.10;99.90;;;;;;5087551;28;19960;-78
2023/04/16 04:06:21;;;;;;;;;;;8.10;99.90;;;;;;5072769;28;19992;-78
2023/04/16 04:08:46;;;;;;;;;;;8.10;99.90;;;;;;5088762;28;19939;-78
2023/04/16 04:11:12;;;;;;;;;;;8.10;99.90;;;;;;5103625;28;19960;-78
2023/04/16 04:13:37;;;;;;;;;;;8.10;99.90;;;;;;5088057;28;20311;-78
2023/04/16 04:16:03;;;;;;;;;;;8.10;99.90;;;;;;5072910;28;19932;-78
2023/04/16 04:18:29;;;;;;;;;;;8.10;99.90;;;;;;5087661;28;19951;-77
2023/04/16 04:20:54;;;;;;;;;;;8.10;99.90;;;;;;5071552;28;20402;-78
2023/04/16 04:23:20;;;;;;;;;;;8.10;99.90;;;;;;5057427;28;19950;-78
2023/04/16 04:25:46;;;;;;;;;;;8.10;99.90;;;;;;5086867;28;19931;-77
2023/04/16 04:28:11;;;;;;;;;;;8.10;99.90;;;;;;5090429;28;19936;-77
2023/04/16 04:30:37;;;;;;;;;;;8.10;99.90;;;;;;5090384;28;20422;-77
2023/04/16 04:33:02;;;;;;;;;;;8.10;99.90;;;;;;5086655;28;19928;-78
2023/04/16 04:35:28;;;;;;;;;;;8.10;99.90;;;;;;5041603;28;19982;-78
2023/04/16 04:37:53;;;;;;;;;;;8.10;99.90;;;;;;5070397;28;19924;-78
2023/04/16 04:40:19;;;;;;;;;;;8.10;99.90;;;;;;5071072;28;19967;-78
2023/04/16 04:42:45;;;;;;;;;;;8.20;99.90;;;;;;5074009;28;20467;-78
2023/04/16 04:45:11;;;;;;;;;;;8.10;99.90;;;;;;5086514;28;19929;-78
2023/04/16 04:47:36;;;;;;;;;;;8.10;99.90;;;;;;5089662;28;19928;-78
2023/04/16 04:50:02;;;;;;;;;;;8.20;99.90;;;;;;5060317;28;19929;-78
2023/04/16 04:52:27;;;;;;;;;;;8.20;99.90;;;;;;5070685;28;19935;-79
2023/04/16 04:54:53;;;;;;;;;;;8.20;99.90;;;;;;5069760;28;19928;-78
2023/04/16 04:57:19;;;;;;;;;;;8.20;99.90;;;;;;5055551;28;19924;-79
2023/04/16 04:59:44;;;;;;;;;;;8.20;99.90;;;;;;5075087;28;19924;-79
2023/04/16 05:02:10;;;;;;;;;;;8.20;99.90;;;;;;5062674;28;19924;-79
2023/04/16 05:04:36;;;;;;;;;;;8.20;99.90;;;;;;5060953;28;19931;-78
2023/04/16 05:07:01;;;;;;;;;;;8.20;99.90;;;;;;5061122;28;20387;-78
2023/04/16 05:09:27;;;;;;;;;;;8.20;99.90;;;;;;5058938;28;20488;-78
2023/04/16 05:11:53;;;;;;;;;;;8.20;99.90;;;;;;5056008;28;20379;-79
2023/04/16 05:14:18;;;;;;;;;;;8.20;99.90;;;;;;5074218;28;20022;-78
2023/04/16 05:16:44;;;;;;;;;;;8.20;99.90;;;;;;5029541;28;19991;-78
2023/04/16 05:19:09;;;;;;;;;;;8.20;99.90;;;;;;5070510;28;20388;-78
2023/04/16 05:21:35;;;;;;;;;;;8.20;99.90;;;;;;5085803;28;20403;-78
2023/04/16 05:24:01;;;;;;;;;;;8.20;99.90;;;;;;5086222;28;19936;-78
2023/04/16 05:26:26;;;;;;;;;;;8.20;99.90;;;;;;5044576;28;19929;-78
2023/04/16 05:28:52;;;;;;;;;;;8.20;99.90;;;;;;5075427;28;19928;-78
2023/04/16 05:31:18;;;;;;;;;;;8.20;99.90;;;;;;5076518;28;19932;-78
2023/04/16 05:33:43;;;;;;;;;;;8.20;99.90;;;;;;5071986;28;19983;-78
2023/04/16 05:36:09;;;;;;;;;;;8.20;99.90;;;;;;5069673;28;19979;-78
2023/04/16 05:38:34;;;;;;;;;;;8.20;99.90;;;;;;5086931;28;19940;-79
2023/04/16 05:41:00;;;;;;;;;;;8.20;99.90;;;;;;5075135;28;19935;-79
2023/04/16 05:43:25;;;;;;;;;;;8.30;99.90;;;;;;5086443;28;19925;-79
2023/04/16 05:45:51;;;;;;;;;;;8.30;99.90;;;;;;5068649;28;19931;-79
2023/04/16 05:48:17;;;;;;;;;;;8.30;99.90;;;;;;5072839;28;19925;-78
2023/04/16 05:50:42;;;;;;;;;;;8.30;99.90;;;;;;5068174;28;20066;-78
2023/04/16 05:53:08;;;;;;;;;;;8.40;99.90;;;;;;5073970;28;19924;-78
2023/04/16 05:55:35;;;;;;;;;;;8.40;99.90;;;;;;5039947;28;19924;-78
2023/04/16 05:58:03;;;;;;;;;;;8.50;99.90;;;;;;5089307;28;19993;-78
2023/04/16 06:00:29;;;;;;;;;;;8.50;99.90;;;;;;5069978;28;19979;-79
2023/04/16 06:02:54;;;;;;;;;;;8.50;99.90;;;;;;5046869;28;19943;-79
2023/04/16 06:05:20;;;;;;;;;;;8.60;99.90;;;;;;5056132;28;19928;-78
2023/04/16 06:07:46;;;;;;;;;;;8.60;99.90;;;;;;5086264;28;19928;-78
2023/04/16 06:10:11;;;;;;;;;;;8.60;99.90;;;;;;5060849;28;19932;-78
2023/04/16 06:12:37;;;;;;;;;;;8.70;99.90;;;;;;5069668;28;19939;-78
2023/04/16 06:15:03;;;;;;;;;;;8.70;99.90;;;;;;5079539;28;19924;-78
2023/04/16 06:17:28;;;;;;;;;;;8.70;99.90;;;;;;5088818;28;19924;-78
2023/04/16 06:19:54;;;;;;;;;;;8.80;99.90;;;;;;5058945;28;19946;-78
2023/04/16 06:22:19;;;;;;;;;;;8.70;99.90;;;;;;5072454;28;19925;-78
2023/04/16 06:24:45;;;;;;;;;;;8.70;99.90;;;;;;5095325;28;20007;-78
2023/04/16 06:27:11;;;;;;;;;;;8.80;99.90;;;;;;5079489;28;19929;-78
2023/04/16 06:29:36;;;;;;;;;;;8.80;99.90;;;;;;5073296;28;20037;-78
2023/04/16 06:32:02;;;;;;;;;;;8.80;99.90;;;;;;5082738;28;20025;-78
2023/04/16 06:34:28;;;;;;;;;;;8.90;99.90;;;;;;5104156;28;20395;-78
2023/04/16 06:36:54;;;;;;;;;;;8.90;99.90;;;;;;5089259;28;19991;-78
2023/04/16 06:39:20;;;;;;;;;;;9.00;99.90;;;;;;5082045;28;19925;-78
2023/04/16 06:41:46;;;;;;;;;;;9.00;99.90;;;;;;5090100;28;19929;-78
2023/04/16 06:44:12;;;;;;;;;;;9.00;99.90;;;;;;5076612;28;19928;-78
2023/04/16 06:46:37;;;;;;;;;;;9.00;99.90;;;;;;5072381;28;19947;-78
2023/04/16 06:49:03;;;;;;;;;;;9.10;99.90;;;;;;5090427;28;19936;-78
2023/04/16 06:51:29;;;;;;;;;;;9.10;99.90;;;;;;5088455;28;19929;-78
2023/04/16 06:53:55;;;;;;;;;;;9.20;99.90;;;;;;5094618;28;20020;-79
2023/04/16 06:56:20;;;;;;;;;;;9.20;99.90;;;;;;5095994;28;19924;-78
2023/04/16 06:58:46;;;;;;;;;;;9.30;99.90;;;;;;5078393;28;19987;-78
2023/04/16 07:01:12;;;;;;;;;;;9.30;99.90;;;;;;5045932;28;19924;-78
2023/04/16 07:03:37;;;;;;;;;;;9.40;99.90;;;;;;5077701;28;19967;-79
2023/04/16 07:06:03;;;;;;;;;;;9.50;99.90;;;;;;5087993;28;19932;-79
2023/04/16 07:08:28;;;;;;;;;;;9.70;99.90;;;;;;5069789;28;19975;-79
2023/04/16 07:10:54;;;;;;;;;;;9.80;99.90;;;;;;5079714;28;19924;-78
2023/04/16 07:13:20;;;;;;;;;;;10.10;99.90;;;;;;5072886;28;20392;-79
2023/04/16 07:15:46;;;;;;;;;;;10.30;99.90;;;;;;5088378;28;20016;-79
2023/04/16 07:18:12;;;;;;;;;;;10.40;99.90;;;;;;5089719;28;19928;-79
2023/04/16 07:20:37;;;;;;;;;;;10.40;99.90;;;;;;5070893;28;20008;-79
2023/04/16 07:23:03;;;;;;;;;;;10.30;99.90;;;;;;5072471;28;19932;-79
2023/04/16 07:25:28;;;;;;;;;;;10.40;99.90;;;;;;5071546;28;19951;-78
2023/04/16 07:27:54;;;;;;;;;;;10.30;99.90;;;;;;5074894;28;19928;-78
2023/04/16 07:30:20;;;;;;;;;;;10.20;99.90;;;;;;5071442;28;19928;-78
2023/04/16 07:32:45;;;;;;;;;;;10.30;99.90;;;;;;5086422;28;19932;-79
2023/04/16 07:35:11;;;;;;;;;;;10.40;99.90;;;;;;5056545;28;19925;-79
2023/04/16 07:37:36;;;;;;;;;;;10.60;99.90;;;;;;5060956;28;19982;-79
2023/04/16 07:40:03;;;;;;;;;;;10.80;99.90;;;;;;5088080;28;19924;-79
2023/04/16 07:42:28;;;;;;;;;;;11.10;99.90;;;;;;5092350;28;19924;-78
2023/04/16 07:44:54;;;;;;;;;;;11.50;99.90;;;;;;5089460;28;19931;-79
2023/04/16 07:47:21;;;;;;;;;;;11.80;99.90;;;;;;5058437;28;19924;-80
2023/04/16 07:49:48;;;;;;;;;;;12.00;99.90;;;;;;5078306;28;19925;-79
2023/04/16 07:52:13;;;;;;;;;;;12.00;99.90;;;;;;5078870;28;19980;-80
2023/04/16 07:54:39;;;;;;;;;;;12.20;99.90;;;;;;5094102;28;19925;-79
2023/04/16 07:57:04;;;;;;;;;;;12.40;99.90;;;;;;5066917;28;20038;-79
2023/04/16 07:59:30;;;;;;;;;;;12.70;99.90;;;;;;5076871;28;19940;-79
2023/04/16 08:01:56;;;;;;;;;;;13.10;99.90;;;;;;5078183;28;19928;-80
2023/04/16 08:04:24;;;;;;;;;;;13.40;99.90;;;;;;5093807;28;19931;-79
2023/04/16 08:06:50;;;;;;;;;;;13.50;99.90;;;;;;5041156;28;19994;-80
2023/04/16 08:09:16;;;;;;;;;;;13.40;99.90;;;;;;5094711;28;20592;-79
2023/04/16 08:11:41;;;;;;;;;;;13.10;99.90;;;;;;5089900;28;20730;-79
2023/04/16 08:14:07;;;;;;;;;;;12.80;99.90;;;;;;5094691;28;19924;-80
2023/04/16 08:16:33;;;;;;;;;;;12.40;99.90;;;;;;5091808;28;19998;-80
2023/04/16 08:18:59;;;;;;;;;;;12.20;99.90;;;;;;5074805;28;20410;-79
2023/04/16 08:21:26;;;;;;;;;;;12.10;99.90;;;;;;5064583;28;19925;-80
2023/04/16 08:23:52;;;;;;;;;;;12.10;99.90;;;;;;5061692;28;19928;-80
2023/04/16 08:26:18;;;;;;;;;;;12.00;99.90;;;;;;5064897;28;20018;-80
2023/04/16 08:28:43;;;;;;;;;;;11.90;99.90;;;;;;5059127;28;20211;-80
2023/04/16 08:31:09;;;;;;;;;;;11.80;99.90;;;;;;5044602;28;19924;-80
2023/04/16 08:33:35;;;;;;;;;;;11.70;99.90;;;;;;5074013;28;19988;-81
2023/04/16 08:36:00;;;;;;;;;;;11.60;99.90;;;;;;5077383;28;19929;-80
2023/04/16 08:38:26;;;;;;;;;;;11.60;99.90;;;;;;5090078;28;20137;-79
2023/04/16 08:40:53;;;;;;;;;;;11.50;99.90;;;;;;5093469;28;19932;-73
2023/04/16 08:43:20;;;;;;;;;;;11.50;99.90;;;;;;5076202;28;19939;-73
2023/04/16 08:45:46;;;;;;;;;;;11.50;99.90;;;;;;5093523;28;19950;-74
2023/04/16 08:48:11;;;;;;;;;;;11.40;99.90;;;;;;5090206;28;20014;-73
2023/04/16 08:50:37;;;;;;;;;;;11.40;99.90;;;;;;5076860;28;19967;-73
2023/04/16 08:53:07;;;;;;;;;;;11.40;99.90;;;;;;5107372;28;19929;-73
2023/04/16 08:55:37;;;;;;;;;;;11.40;99.90;;;;;;5088272;28;20295;-73
2023/04/16 08:58:13;;;;;;;;;;;11.50;99.90;;;;;;5074345;28;19928;-73
2023/04/16 09:00:40;;;;;;;;;;;11.60;99.90;;;;;;5090107;28;20318;-73
2023/04/16 09:03:05;;;;;;;;;;;11.80;99.90;;;;;;5077381;28;19925;-73
2023/04/16 09:05:31;;;;;;;;;;;11.90;99.90;;;;;;5091822;28;19983;-73
2023/04/16 09:07:57;;;;;;;;;;;12.00;99.90;;;;;;5056567;28;19925;-73
2023/04/16 09:10:24;;;;;;;;;;;12.40;99.90;;;;;;5105096;28;20006;-74
2023/04/16 09:12:50;;;;;;;;;;;12.70;99.90;;;;;;5060925;28;19985;-73
2023/04/16 09:15:15;;;;;;;;;;;12.80;99.90;;;;;;5092399;28;20525;-73
2023/04/16 09:17:41;;;;;;;;;;;12.80;99.90;;;;;;5070858;28;19929;-73
2023/04/16 09:20:11;;;;;;;;;;;12.60;99.90;;;;;;5092864;28;20365;-73
2023/04/16 09:22:38;;;;;;;;;;;12.50;99.90;;;;;;5102386;28;19928;-73
2023/04/16 09:25:05;;;;;;;;;;;12.40;99.90;;;;;;5074872;28;19932;-73
2023/04/16 09:27:31;;;;;;;;;;;12.50;99.90;;;;;;5057975;28;20452;-73
2023/04/16 09:29:56;;;;;;;;;;;12.60;99.90;;;;;;5092186;28;19959;-73
2023/04/16 09:32:26;;;;;;;;;;;12.70;99.90;;;;;;5074777;28;19960;-73
2023/04/16 09:34:59;;;;;;;;;;;12.80;99.90;;;;;;5061072;28;20548;-73
2023/04/16 09:37:28;;;;;;;;;;;13.10;99.90;;;;;;5076151;28;19984;-73
2023/04/16 09:39:54;;;;;;;;;;;13.70;99.90;;;;;;5076830;28;19928;-73
2023/04/16 09:42:23;;;;;;;;;;;14.20;99.90;;;;;;5075790;28;20461;-73
2023/04/16 09:44:51;;;;;;;;;;;14.30;99.90;;;;;;5090553;28;20399;-73
2023/04/16 09:47:16;;;;;;;;;;;14.30;99.90;;;;;;5073243;28;20388;-73
2023/04/16 09:49:42;;;;;;;;;;;14.10;99.90;;;;;;5093515;28;19924;-73
2023/04/16 09:52:13;;;;;;;;;;;14.00;99.90;;;;;;5093604;28;19931;-73
2023/04/16 09:54:45;;;;;;;;;;;14.00;99.90;;;;;;5066888;28;19928;-73
2023/04/16 09:57:11;;;;;;;;;;;14.10;99.90;;;;;;5061084;28;19963;-73
2023/04/16 09:59:36;;;;;;;;;;;14.20;99.90;;;;;;5073044;28;19924;-74
2023/04/16 10:02:02;;;;;;;;;;;14.30;99.90;;;;;;5096040;28;19924;-73
2023/04/16 10:04:28;;;;;;;;;;;14.50;99.90;;;;;;5080351;28;20002;-73
2023/04/16 10:07:03;;;;;;;;;;;14.80;99.90;;;;;;5068844;28;19967;-73
2023/04/16 10:09:47;;;;;;;;;;;15.10;99.90;;;;;;5081340;28;19931;-73
2023/04/16 10:12:13;;;;;;;;;;;15.40;99.90;;;;;;5061790;28;19931;-73
2023/04/16 10:14:40;;;;;;;;;;;15.80;99.90;;;;;;5079524;28;19964;-73
2023/04/16 10:17:06;;;;;;;;;;;16.00;99.90;;;;;;5079868;28;20011;-73
2023/04/16 10:19:32;;;;;;;;;;;16.20;99.90;;;;;;5078576;28;19979;-73
2023/04/16 10:21:57;;;;;;;;;;;16.40;99.90;;;;;;5078696;28;20350;-74
2023/04/16 10:24:30;;;;;;;;;;;16.30;99.90;;;;;;5078882;28;19940;-72
2023/04/16 10:26:55;;;;;;;;;;;16.10;99.90;;;;;;5078603;28;19966;-79
2023/04/16 10:29:21;;;;;;;;;;;15.90;99.90;;;;;;5079566;28;20418;-79
2023/04/16 10:31:47;;;;;;;;;;;15.80;99.90;;;;;;5094086;28;19924;-79
2023/04/16 10:34:13;;;;;;;;;;;15.80;99.90;;;;;;5092847;28;19972;-79
2023/04/16 10:36:39;;;;;;;;;;;15.80;99.90;;;;;;5039458;28;19948;-79
2023/04/16 10:39:08;;;;;;;;;;;15.80;99.90;;;;;;5039548;28;19975;-78
2023/04/16 10:41:35;;;;;;;;;;;15.80;99.90;;;;;;5061056;28;19928;-79
2023/04/16 10:44:05;;;;;;;;;;;15.90;99.90;;;;;;5043985;28;20486;-79
2023/04/16 10:46:32;;;;;;;;;;;15.80;99.90;;;;;;5094633;28;19931;-80
2023/04/16 10:49:02;;;;;;;;;;;15.70;99.90;;;;;;5065361;28;19924;-80
2023/04/16 10:51:35;;;;;;;;;;;15.80;99.90;;;;;;5084315;28;19925;-80
2023/04/16 10:54:06;;;;;;;;;;;16.00;99.90;;;;;;5050870;28;20288;-80
2023/04/16 10:56:32;;;;;;;;;;;16.10;99.90;;;;;;5064120;28;19928;-80
2023/04/16 10:58:58;;;;;;;;;;;16.10;99.90;;;;;;5101659;28;20547;-81
2023/04/16 11:01:31;;;;;;;;;;;16.10;99.90;;;;;;5061432;28;20384;-81
2023/04/16 11:03:58;;;;;;;;;;;16.00;99.90;;;;;;5081595;28;19925;-81
2023/04/16 11:06:24;;;;;;;;;;;15.90;99.90;;;;;;5075901;28;19991;-80
2023/04/16 11:08:50;;;;;;;;;;;15.70;99.90;;;;;;5079530;28;19925;-81
2023/04/16 11:11:17;;;;;;;;;;;15.60;99.90;;;;;;5061964;28;20008;-82
2023/04/16 11:13:44;;;;;;;;;;;15.60;99.90;;;;;;5087494;28;19924;-81
2023/04/16 11:16:13;;;;;;;;;;;15.60;99.90;;;;;;5076752;28;19932;-81
2023/04/16 11:18:40;;;;;;;;;;;15.60;99.90;;;;;;5079668;28;19936;-81
2023/04/16 11:21:09;;;;;;;;;;;15.50;99.90;;;;;;5077294;28;19936;-81
2023/04/16 11:23:45;;;;;;;;;;;15.50;99.90;;;;;;5063787;28;20129;-81
2023/04/16 11:26:21;;;;;;;;;;;15.30;99.90;;;;;;5039881;28;19947;-81
2023/04/16 11:28:47;;;;;;;;;;;15.20;99.90;;;;;;5082396;28;19932;-81
2023/04/16 11:31:13;;;;;;;;;;;15.10;99.90;;;;;;5043643;28;19990;-80
2023/04/16 11:33:38;;;;;;;;;;;15.00;99.90;;;;;;5057381;28;19928;-81
2023/04/16 11:36:04;;;;;;;;;;;14.90;99.90;;;;;;5075361;28;19950;-81
2023/04/16 11:38:36;;;;;;;;;;;15.00;99.90;;;;;;5063700;28;20295;-80
2023/04/16 11:41:02;;;;;;;;;;;15.00;99.90;;;;;;5045906;28;19925;-81
2023/04/16 11:43:27;;;;;;;;;;;15.10;99.90;;;;;;5059046;28;20379;-80
2023/04/16 11:45:57;;;;;;;;;;;15.30;99.90;;;;;;5062963;28;19928;-81
2023/04/16 11:48:23;;;;;;;;;;;15.40;99.90;;;;;;5075203;28;19931;-81
2023/04/16 11:50:55;;;;;;;;;;;15.50;99.90;;;;;;5086177;28;20401;-81
2023/04/16 11:53:21;;;;;;;;;;;15.50;99.90;;;;;;5056863;28;19936;-81
2023/04/16 11:55:46;;;;;;;;;;;15.60;99.90;;;;;;5063755;28;19925;-80
2023/04/16 11:58:15;;;;;;;;;;;15.60;99.90;;;;;;5071541;28;19987;-80
2023/04/16 12:00:41;;;;;;;;;;;15.70;99.90;;;;;;5088685;28;20241;-81
2023/04/16 12:03:07;;;;;;;;;;;15.70;99.90;;;;;;5036958;28;19957;-81
2023/04/16 12:05:39;;;;;;;;;;;15.70;99.90;;;;;;5068544;28;19932;-81
2023/04/16 12:08:06;;;;;;;;;;;15.60;99.90;;;;;;5090322;28;19984;-82
2023/04/16 12:10:36;;;;;;;;;;;15.50;99.90;;;;;;5059673;28;19990;-80
2023/04/16 12:13:14;;;;;;;;;;;15.50;99.90;;;;;;5059960;28;19925;-81
2023/04/16 12:15:47;;;;;;;;;;;15.40;99.90;;;;;;5052767;28;19924;-81
2023/04/16 12:18:14;;;;;;;;;;;15.40;99.90;;;;;;5092729;28;19950;-81
2023/04/16 12:20:40;;;;;;;;;;;15.30;99.90;;;;;;5087514;28;19932;-81
2023/04/16 12:23:07;;;;;;;;;;;15.30;99.90;;;;;;5084942;28;19975;-84
2023/04/16 12:25:33;;;;;;;;;;;15.30;99.90;;;;;;5049999;28;19968;-81
2023/04/16 12:27:58;;;;;;;;;;;15.20;99.90;;;;;;5051361;28;19924;-81
2023/04/16 12:30:27;;;;;;;;;;;15.10;99.90;;;;;;5043661;28;19933;-80
2023/04/16 12:33:11;;;;;;;;;;;15.10;99.90;;;;;;5077938;28;19967;-80
2023/04/16 12:35:37;;;;;;;;;;;15.10;99.90;;;;;;5111572;28;19924;-80
2023/04/16 12:38:03;;;;;;;;;;;15.10;99.90;;;;;;5076843;28;19924;-81
2023/04/16 12:40:28;;;;;;;;;;;15.10;99.90;;;;;;5077689;28;19925;-81
2023/04/16 12:42:54;;;;;;;;;;;15.10;99.90;;;;;;5076277;28;19931;-79
2023/04/16 12:45:20;;;;;;;;;;;15.10;99.90;;;;;;5059106;28;19930;-81
2023/04/16 12:47:46;;;;;;;;;;;15.10;99.90;;;;;;5077258;28;20400;-80
2023/04/16 12:50:11;;;;;;;;;;;15.10;99.90;;;;;;5093438;28;20023;-80
2023/04/16 12:52:37;;;;;;;;;;;15.10;99.90;;;;;;5076758;28;19932;-80
2023/04/16 12:55:03;;;;;;;;;;;15.20;99.90;;;;;;5093371;28;20482;-80
2023/04/16 12:57:29;;;;;;;;;;;15.30;99.90;;;;;;5060734;28;19928;-79
2023/04/16 12:59:55;;;;;;;;;;;15.40;99.90;;;;;;5092837;28;19930;-80
2023/04/16 13:02:22;;;;;;;;;;;15.40;99.90;;;;;;5077189;28;19947;-80
2023/04/16 13:04:48;;;;;;;;;;;15.40;99.90;;;;;;5093153;28;19925;-80
2023/04/16 13:07:14;;;;;;;;;;;15.30;99.90;;;;;;5093276;28;19932;-80
2023/04/16 13:09:40;;;;;;;;;;;15.40;99.90;;;;;;5076750;28;19951;-80
2023/04/16 13:12:05;;;;;;;;;;;15.60;99.90;;;;;;5086830;28;20372;-80
2023/04/16 13:14:31;;;;;;;;;;;15.70;99.90;;;;;;5070841;28;19974;-81
2023/04/16 13:16:57;;;;;;;;;;;15.80;99.90;;;;;;5075675;28;19924;-80
2023/04/16 13:19:22;;;;;;;;;;;15.90;99.90;;;;;;5077056;28;20013;-80
2023/04/16 13:21:48;;;;;;;;;;;16.00;99.90;;;;;;5076334;28;19925;-81
2023/04/16 13:24:13;;;;;;;;;;;16.00;99.90;;;;;;5077784;28;19935;-80
2023/04/16 13:26:39;;;;;;;;;;;15.90;99.90;;;;;;5093743;28;19943;-81
2023/04/16 13:29:05;;;;;;;;;;;15.90;99.90;;;;;;5075727;28;19928;-80
2023/04/16 13:31:30;;;;;;;;;;;15.80;99.90;;;;;;5076643;28;20443;-80
2023/04/16 13:33:56;;;;;;;;;;;15.70;99.90;;;;;;5095212;28;19924;-81
2023/04/16 13:36:21;;;;;;;;;;;15.60;99.90;;;;;;5081003;28;19943;-80
2023/04/16 13:38:47;;;;;;;;;;;15.60;99.90;;;;;;5080790;28;19974;-81
2023/04/16 13:41:13;;;;;;;;;;;15.60;99.90;;;;;;5097517;28;19975;-80
2023/04/16 13:43:38;;;;;;;;;;;15.70;99.90;;;;;;5080889;28;19928;-80
2023/04/16 13:46:04;;;;;;;;;;;15.90;99.90;;;;;;5079886;28;19928;-81
2023/04/16 13:48:29;;;;;;;;;;;16.00;99.90;;;;;;5097982;28;19925;-81
2023/04/16 13:50:55;;;;;;;;;;;16.10;99.90;;;;;;5096593;28;19928;-81
2023/04/16 13:53:21;;;;;;;;;;;16.30;99.90;;;;;;5097602;28;19925;-80
2023/04/16 13:55:48;;;;;;;;;;;16.20;99.90;;;;;;5079717;28;19932;-80
2023/04/16 13:58:14;;;;;;;;;;;16.20;99.90;;;;;;5079943;28;19971;-81
2023/04/16 14:00:41;;;;;;;;;;;16.40;99.90;;;;;;5097387;28;19963;-80
2023/04/16 14:03:06;;;;;;;;;;;16.50;99.90;;;;;;5095097;28;19925;-76
2023/04/16 14:05:32;;;;;;;;;;;16.70;99.90;;;;;;5070167;28;19932;-82
2023/04/16 14:07:57;;;;;;;;;;;17.00;99.90;;;;;;5039755;28;19924;-81
2023/04/16 14:10:23;;;;;;;;;;;17.30;99.90;;;;;;5073594;28;20446;-82
2023/04/16 14:12:48;;;;;;;;;;;17.40;99.90;;;;;;5056415;28;19964;-81
2023/04/16 14:15:14;;;;;;;;;;;17.30;99.90;;;;;;5071944;28;19939;-81
2023/04/16 14:17:41;;;;;;;;;;;17.20;99.90;;;;;;5074233;28;19951;-81